sensor_id;sensor_type;location;lat;lon;timestamp;pressure;altitude;pressure_sealevel;temperature;humidity
23361;BME280;11852;50.082;18.554;2023-02-03T00:00:11;99240.0;;;1.32;72.39
23361;BME280;11852;50.082;18.554;2023-02-03T00:01:20;99236.5;;;1.37;72.26
23361;BME280;11852;50.082;18.554;2023-02-03T00:02:29;99238.5;;;1.34;72.45
23361;BME280;11852;50.082;18.554;2023-02-03T00:03:37;99238.0;;;1.33;72.59
23361;BME280;11852;50.082;18.554;2023-02-03T00:04:47;99237.5;;;1.33;72.49
23361;BME280;11852;50.082;18.554;2023-02-03T00:05:56;99233.5;;;1.25;72.49
23361;BME280;11852;50.082;18.554;2023-02-03T00:07:03;99237.5;;;1.34;71.94
23361;BME280;11852;50.082;18.554;2023-02-03T00:08:12;99242.51;;;1.35;71.93
23361;BME280;11852;50.082;18.554;2023-02-03T00:09:22;99241.0;;;1.23;72.05
23361;BME280;11852;50.082;18.554;2023-02-03T00:10:32;99239.0;;;1.22;72.07
23361;BME280;11852;50.082;18.554;2023-02-03T00:11:40;99240.0;;;1.25;72.08
23361;BME280;11852;50.082;18.554;2023-02-03T00:12:50;99236.0;;;1.21;72.05
23361;BME280;11852;50.082;18.554;2023-02-03T00:13:58;99239.0;;;1.21;72.15
23361;BME280;11852;50.082;18.554;2023-02-03T00:15:07;99237.5;;;1.19;72.23
23361;BME280;11852;50.082;18.554;2023-02-03T00:16:16;99240.0;;;1.21;72.23
23361;BME280;11852;50.082;18.554;2023-02-03T00:17:25;99243.0;;;1.19;72.57
23361;BME280;11852;50.082;18.554;2023-02-03T00:18:35;99244.0;;;1.24;72.4
23361;BME280;11852;50.082;18.554;2023-02-03T00:19:45;99246.5;;;1.09;72.83
23361;BME280;11852;50.082;18.554;2023-02-03T00:20:54;99247.0;;;1.09;72.98
23361;BME280;11852;50.082;18.554;2023-02-03T00:22:02;99251.0;;;0.84;73.47
23361;BME280;11852;50.082;18.554;2023-02-03T00:23:10;99251.0;;;0.89;73.4
23361;BME280;11852;50.082;18.554;2023-02-03T00:24:21;99254.0;;;0.89;73.74
23361;BME280;11852;50.082;18.554;2023-02-03T00:25:30;99251.5;;;0.74;73.84
23361;BME280;11852;50.082;18.554;2023-02-03T00:26:41;99253.5;;;0.81;74.09
23361;BME280;11852;50.082;18.554;2023-02-03T00:27:50;99256.0;;;0.75;74.43
23361;BME280;11852;50.082;18.554;2023-02-03T00:29:00;99253.5;;;0.64;74.49
23361;BME280;11852;50.082;18.554;2023-02-03T00:30:10;99254.0;;;0.69;74.84
23361;BME280;11852;50.082;18.554;2023-02-03T00:31:19;99256.99;;;0.77;74.76
23361;BME280;11852;50.082;18.554;2023-02-03T00:32:28;99257.5;;;0.87;74.49
23361;BME280;11852;50.082;18.554;2023-02-03T00:33:36;99257.99;;;0.88;74.44
23361;BME280;11852;50.082;18.554;2023-02-03T00:34:45;99256.5;;;0.93;74.38
23361;BME280;11852;50.082;18.554;2023-02-03T00:35:52;99259.5;;;0.89;74.65
23361;BME280;11852;50.082;18.554;2023-02-03T00:37:02;99258.5;;;0.83;74.71
23361;BME280;11852;50.082;18.554;2023-02-03T00:38:10;99263.0;;;0.91;74.65
23361;BME280;11852;50.082;18.554;2023-02-03T00:39:20;99262.5;;;0.94;74.9
23361;BME280;11852;50.082;18.554;2023-02-03T00:40:30;99264.5;;;0.86;75.99
23361;BME280;11852;50.082;18.554;2023-02-03T00:41:39;99265.5;;;0.84;75.04
23361;BME280;11852;50.082;18.554;2023-02-03T00:42:48;99263.5;;;0.77;75.19
23361;BME280;11852;50.082;18.554;2023-02-03T00:43:56;99262.0;;;0.81;75.1
23361;BME280;11852;50.082;18.554;2023-02-03T00:45:06;99265.5;;;0.88;75.16
23361;BME280;11852;50.082;18.554;2023-02-03T00:46:14;99267.5;;;0.97;75.08
23361;BME280;11852;50.082;18.554;2023-02-03T00:47:23;99261.5;;;0.92;75.2
23361;BME280;11852;50.082;18.554;2023-02-03T00:48:31;99263.0;;;1.01;74.88
23361;BME280;11852;50.082;18.554;2023-02-03T00:49:41;99264.0;;;0.94;75.1
23361;BME280;11852;50.082;18.554;2023-02-03T00:50:49;99265.0;;;0.89;75.19
23361;BME280;11852;50.082;18.554;2023-02-03T00:51:58;99261.5;;;0.8;75.57
23361;BME280;11852;50.082;18.554;2023-02-03T00:53:05;99260.5;;;0.8;75.48
23361;BME280;11852;50.082;18.554;2023-02-03T00:54:15;99266.0;;;0.88;75.22
23361;BME280;11852;50.082;18.554;2023-02-03T00:55:25;99263.5;;;0.76;75.61
23361;BME280;11852;50.082;18.554;2023-02-03T00:56:34;99262.5;;;0.5;75.64
23361;BME280;11852;50.082;18.554;2023-02-03T00:57:44;99266.0;;;0.73;75.15
23361;BME280;11852;50.082;18.554;2023-02-03T00:58:53;99264.5;;;0.9;75.06
23361;BME280;11852;50.082;18.554;2023-02-03T01:00:02;99257.0;;;0.81;75.39
23361;BME280;11852;50.082;18.554;2023-02-03T01:01:11;99256.0;;;0.86;75.33
23361;BME280;11852;50.082;18.554;2023-02-03T01:02:20;99253.0;;;1.0;75.08
23361;BME280;11852;50.082;18.554;2023-02-03T01:03:29;99250.5;;;1.1;74.91
23361;BME280;11852;50.082;18.554;2023-02-03T01:04:40;99254.0;;;1.04;74.74
23361;BME280;11852;50.082;18.554;2023-02-03T01:05:47;99252.0;;;0.82;75.15
23361;BME280;11852;50.082;18.554;2023-02-03T01:06:55;99250.5;;;0.59;75.41
23361;BME280;11852;50.082;18.554;2023-02-03T01:08:04;99249.0;;;0.62;75.46
23361;BME280;11852;50.082;18.554;2023-02-03T01:09:13;99250.0;;;0.25;76.29
23361;BME280;11852;50.082;18.554;2023-02-03T01:10:21;99249.0;;;0.43;75.97
23361;BME280;11852;50.082;18.554;2023-02-03T01:11:30;99247.5;;;0.27;76.18
23361;BME280;11852;50.082;18.554;2023-02-03T01:12:41;99249.5;;;0.57;75.52
23361;BME280;11852;50.082;18.554;2023-02-03T01:13:50;99251.5;;;0.64;75.45
23361;BME280;11852;50.082;18.554;2023-02-03T01:14:59;99253.5;;;0.64;75.26
23361;BME280;11852;50.082;18.554;2023-02-03T01:16:11;99252.0;;;0.64;75.32
23361;BME280;11852;50.082;18.554;2023-02-03T01:17:19;99249.0;;;0.62;75.6
23361;BME280;11852;50.082;18.554;2023-02-03T01:18:29;99247.0;;;0.55;75.6
23361;BME280;11852;50.082;18.554;2023-02-03T01:19:38;99244.5;;;0.63;75.32
23361;BME280;11852;50.082;18.554;2023-02-03T01:20:47;99243.5;;;0.7;75.18
23361;BME280;11852;50.082;18.554;2023-02-03T01:21:56;99243.5;;;0.9;75.07
23361;BME280;11852;50.082;18.554;2023-02-03T01:23:05;99244.5;;;0.95;75.19
23361;BME280;11852;50.082;18.554;2023-02-03T01:24:14;99241.5;;;0.87;75.22
23361;BME280;11852;50.082;18.554;2023-02-03T01:25:22;99241.0;;;0.64;75.49
23361;BME280;11852;50.082;18.554;2023-02-03T01:26:31;99242.5;;;0.77;75.29
23361;BME280;11852;50.082;18.554;2023-02-03T01:27:40;99240.0;;;0.63;75.49
23361;BME280;11852;50.082;18.554;2023-02-03T01:28:56;99243.0;;;0.8;75.1
23361;BME280;11852;50.082;18.554;2023-02-03T01:30:04;99244.5;;;0.81;75.19
23361;BME280;11852;50.082;18.554;2023-02-03T01:31:15;99240.5;;;0.72;75.46
23361;BME280;11852;50.082;18.554;2023-02-03T01:32:21;99244.5;;;0.92;75.18
23361;BME280;11852;50.082;18.554;2023-02-03T01:33:29;99241.0;;;0.82;75.48
23361;BME280;11852;50.082;18.554;2023-02-03T01:34:37;99237.0;;;0.93;74.99
23361;BME280;11852;50.082;18.554;2023-02-03T01:35:46;99241.5;;;1.07;74.69
23361;BME280;11852;50.082;18.554;2023-02-03T01:36:55;99241.5;;;1.13;74.69
23361;BME280;11852;50.082;18.554;2023-02-03T01:38:02;99241.5;;;1.1;74.57
23361;BME280;11852;50.082;18.554;2023-02-03T01:39:12;99238.5;;;0.94;74.82
23361;BME280;11852;50.082;18.554;2023-02-03T01:40:21;99238.0;;;0.87;74.4
23361;BME280;11852;50.082;18.554;2023-02-03T01:41:31;99240.0;;;0.63;74.93
23361;BME280;11852;50.082;18.554;2023-02-03T01:42:38;99236.5;;;0.55;75.02
23361;BME280;11852;50.082;18.554;2023-02-03T01:43:49;99240.0;;;0.8;74.35
23361;BME280;11852;50.082;18.554;2023-02-03T01:44:56;99241.5;;;0.88;74.52
23361;BME280;11852;50.082;18.554;2023-02-03T01:46:13;99237.5;;;0.91;74.44
23361;BME280;11852;50.082;18.554;2023-02-03T01:48:06;99236.5;;;0.82;74.53
23361;BME280;11852;50.082;18.554;2023-02-03T01:48:32;99236.5;;;0.77;74.36
23361;BME280;11852;50.082;18.554;2023-02-03T01:49:47;99237.0;;;0.78;74.17
23361;BME280;11852;50.082;18.554;2023-02-03T01:50:55;99241.5;;;0.88;74.07
23361;BME280;11852;50.082;18.554;2023-02-03T01:52:04;99238.0;;;0.83;74.11
23361;BME280;11852;50.082;18.554;2023-02-03T01:53:13;99235.5;;;0.93;74.01
23361;BME280;11852;50.082;18.554;2023-02-03T01:54:27;99235.0;;;0.9;74.04
23361;BME280;11852;50.082;18.554;2023-02-03T01:55:36;99233.5;;;0.74;74.18
23361;BME280;11852;50.082;18.554;2023-02-03T01:56:44;99231.49;;;0.74;74.09
23361;BME280;11852;50.082;18.554;2023-02-03T01:57:56;99232.0;;;0.73;74.04
23361;BME280;11852;50.082;18.554;2023-02-03T01:59:04;99230.0;;;0.7;74.13
23361;BME280;11852;50.082;18.554;2023-02-03T02:00:12;99229.0;;;0.72;74.04
23361;BME280;11852;50.082;18.554;2023-02-03T02:01:22;99227.0;;;0.8;74.02
23361;BME280;11852;50.082;18.554;2023-02-03T02:02:29;99222.5;;;0.87;74.16
23361;BME280;11852;50.082;18.554;2023-02-03T02:03:40;99218.0;;;0.94;74.18
23361;BME280;11852;50.082;18.554;2023-02-03T02:06:03;99216.0;;;0.98;74.18
23361;BME280;11852;50.082;18.554;2023-02-03T02:07:11;99212.5;;;0.98;74.18
23361;BME280;11852;50.082;18.554;2023-02-03T02:08:19;99211.0;;;0.97;74.26
23361;BME280;11852;50.082;18.554;2023-02-03T02:09:27;99207.49;;;0.96;74.4
23361;BME280;11852;50.082;18.554;2023-02-03T02:10:39;99203.5;;;0.96;74.27
23361;BME280;11852;50.082;18.554;2023-02-03T02:11:48;99203.5;;;0.95;74.36
23361;BME280;11852;50.082;18.554;2023-02-03T02:13:00;99202.0;;;0.93;74.43
23361;BME280;11852;50.082;18.554;2023-02-03T02:14:08;99200.5;;;0.92;74.56
23361;BME280;11852;50.082;18.554;2023-02-03T02:15:16;99195.0;;;0.89;74.57
23361;BME280;11852;50.082;18.554;2023-02-03T02:20:28;99195.0;;;0.83;74.88
23361;BME280;11852;50.082;18.554;2023-02-03T02:25:32;99190.5;;;0.75;75.22
23361;BME280;11852;50.082;18.554;2023-02-03T02:26:46;99187.5;;;0.77;75.26
23361;BME280;11852;50.082;18.554;2023-02-03T02:30:33;99190.5;;;0.67;75.57
23361;BME280;11852;50.082;18.554;2023-02-03T02:34:10;99182.0;;;0.63;75.9
23361;BME280;11852;50.082;18.554;2023-02-03T02:36:34;99184.0;;;0.54;76.46
23361;BME280;11852;50.082;18.554;2023-02-03T02:37:49;99180.5;;;0.49;76.47
23361;BME280;11852;50.082;18.554;2023-02-03T02:44:01;99164.0;;;0.47;77.21
23361;BME280;11852;50.082;18.554;2023-02-03T02:45:13;99157.0;;;0.26;77.83
23361;BME280;11852;50.082;18.554;2023-02-03T02:46:18;99155.0;;;0.19;78.17
23361;BME280;11852;50.082;18.554;2023-02-03T02:47:26;99156.0;;;0.29;77.97
23361;BME280;11852;50.082;18.554;2023-02-03T02:48:35;99151.5;;;0.33;78.13
23361;BME280;11852;50.082;18.554;2023-02-03T02:50:58;99150.5;;;0.34;78.29
23361;BME280;11852;50.082;18.554;2023-02-03T02:52:08;99147.0;;;0.42;78.27
23361;BME280;11852;50.082;18.554;2023-02-03T02:53:17;99145.0;;;0.32;78.51
23361;BME280;11852;50.082;18.554;2023-02-03T02:54:26;99145.0;;;0.4;78.43
23361;BME280;11852;50.082;18.554;2023-02-03T02:55:35;99144.5;;;0.3;78.74
23361;BME280;11852;50.082;18.554;2023-02-03T02:56:42;99144.0;;;0.3;78.65
23361;BME280;11852;50.082;18.554;2023-02-03T02:57:53;99141.5;;;0.41;78.46
23361;BME280;11852;50.082;18.554;2023-02-03T02:59:01;99138.5;;;0.45;78.58
23361;BME280;11852;50.082;18.554;2023-02-03T03:00:09;99137.0;;;0.54;78.46
23361;BME280;11852;50.082;18.554;2023-02-03T03:01:18;99138.0;;;0.59;77.93
23361;BME280;11852;50.082;18.554;2023-02-03T03:02:32;99142.5;;;0.65;77.14
23361;BME280;11852;50.082;18.554;2023-02-03T03:03:40;99142.0;;;0.68;77.01
23361;BME280;11852;50.082;18.554;2023-02-03T03:04:48;99142.01;;;0.67;76.88
23361;BME280;11852;50.082;18.554;2023-02-03T03:06:01;99142.5;;;0.57;77.14
23361;BME280;11852;50.082;18.554;2023-02-03T03:07:17;99142.0;;;0.45;77.32
23361;BME280;11852;50.082;18.554;2023-02-03T03:08:23;99146.5;;;0.38;77.43
23361;BME280;11852;50.082;18.554;2023-02-03T03:09:33;99146.0;;;0.46;77.34
23361;BME280;11852;50.082;18.554;2023-02-03T03:10:37;99155.5;;;0.54;77.26
23361;BME280;11852;50.082;18.554;2023-02-03T03:11:48;99156.5;;;0.46;77.47
23361;BME280;11852;50.082;18.554;2023-02-03T03:12:58;99162.0;;;0.52;77.39
23361;BME280;11852;50.082;18.554;2023-02-03T03:14:05;99161.5;;;0.44;77.4
23361;BME280;11852;50.082;18.554;2023-02-03T03:15:15;99160.0;;;0.28;77.87
23361;BME280;11852;50.082;18.554;2023-02-03T03:16:23;99157.99;;;0.29;77.92
23361;BME280;11852;50.082;18.554;2023-02-03T03:17:36;99161.5;;;0.34;77.91
23361;BME280;11852;50.082;18.554;2023-02-03T03:18:43;99163.0;;;0.5;77.4
23361;BME280;11852;50.082;18.554;2023-02-03T03:19:51;99166.5;;;0.51;76.94
23361;BME280;11852;50.082;18.554;2023-02-03T03:20:59;99162.5;;;0.49;77.03
23361;BME280;11852;50.082;18.554;2023-02-03T03:22:08;99164.0;;;0.51;76.97
23361;BME280;11852;50.082;18.554;2023-02-03T03:23:32;99162.5;;;0.53;76.99
23361;BME280;11852;50.082;18.554;2023-02-03T03:24:31;99165.0;;;0.51;77.02
23361;BME280;11852;50.082;18.554;2023-02-03T03:25:42;99164.0;;;0.56;77.04
23361;BME280;11852;50.082;18.554;2023-02-03T03:26:55;99157.99;;;0.6;76.95
23361;BME280;11852;50.082;18.554;2023-02-03T03:28:04;99147.5;;;0.6;77.02
23361;BME280;11852;50.082;18.554;2023-02-03T03:30:33;99136.5;;;0.56;77.2
23361;BME280;11852;50.082;18.554;2023-02-03T03:31:39;99139.5;;;0.43;77.6
23361;BME280;11852;50.082;18.554;2023-02-03T03:32:54;99141.0;;;0.42;77.69
23361;BME280;11852;50.082;18.554;2023-02-03T03:34:04;99140.0;;;0.48;77.68
23361;BME280;11852;50.082;18.554;2023-02-03T03:35:13;99137.5;;;0.46;77.82
23361;BME280;11852;50.082;18.554;2023-02-03T03:36:24;99131.0;;;0.53;77.74
23361;BME280;11852;50.082;18.554;2023-02-03T03:37:35;99132.0;;;0.55;77.86
23361;BME280;11852;50.082;18.554;2023-02-03T03:38:43;99127.5;;;0.6;77.77
23361;BME280;11852;50.082;18.554;2023-02-03T03:39:57;99128.5;;;0.55;78.0
23361;BME280;11852;50.082;18.554;2023-02-03T03:41:06;99123.5;;;0.45;78.14
23361;BME280;11852;50.082;18.554;2023-02-03T03:43:27;99116.0;;;0.28;78.51
23361;BME280;11852;50.082;18.554;2023-02-03T03:44:39;99111.5;;;0.22;78.68
23361;BME280;11852;50.082;18.554;2023-02-03T03:45:57;99112.5;;;0.29;78.54
23361;BME280;11852;50.082;18.554;2023-02-03T03:47:07;99109.5;;;0.16;79.15
23361;BME280;11852;50.082;18.554;2023-02-03T03:48:39;99104.5;;;0.25;79.07
23361;BME280;11852;50.082;18.554;2023-02-03T03:49:24;99108.0;;;0.12;79.57
23361;BME280;11852;50.082;18.554;2023-02-03T03:50:42;99105.0;;;0.19;79.44
23361;BME280;11852;50.082;18.554;2023-02-03T03:51:47;99103.5;;;0.24;79.35
23361;BME280;11852;50.082;18.554;2023-02-03T03:52:56;99104.0;;;0.22;79.5
23361;BME280;11852;50.082;18.554;2023-02-03T03:54:08;99104.0;;;0.28;79.44
23361;BME280;11852;50.082;18.554;2023-02-03T03:55:16;99101.0;;;0.39;79.3
23361;BME280;11852;50.082;18.554;2023-02-03T03:56:27;99101.0;;;0.4;79.35
23361;BME280;11852;50.082;18.554;2023-02-03T03:58:51;99099.5;;;0.44;79.18
23361;BME280;11852;50.082;18.554;2023-02-03T03:59:59;99098.5;;;0.47;79.04
23361;BME280;11852;50.082;18.554;2023-02-03T04:01:11;99097.0;;;0.35;79.12
23361;BME280;11852;50.082;18.554;2023-02-03T04:02:21;99095.0;;;0.28;79.61
23361;BME280;11852;50.082;18.554;2023-02-03T04:03:32;99090.0;;;0.31;79.41
23361;BME280;11852;50.082;18.554;2023-02-03T04:04:37;99091.0;;;0.28;79.29
23361;BME280;11852;50.082;18.554;2023-02-03T04:05:45;99085.5;;;0.22;79.39
23361;BME280;11852;50.082;18.554;2023-02-03T04:06:55;99086.5;;;0.09;79.94
23361;BME280;11852;50.082;18.554;2023-02-03T04:08:03;99083.5;;;0.12;79.74
23361;BME280;11852;50.082;18.554;2023-02-03T04:09:12;99081.0;;;0.22;79.57
23361;BME280;11852;50.082;18.554;2023-02-03T04:11:41;99081.5;;;0.18;79.24
23361;BME280;11852;50.082;18.554;2023-02-03T04:12:50;99077.0;;;0.2;79.13
23361;BME280;11852;50.082;18.554;2023-02-03T04:13:58;99076.0;;;0.13;79.32
23361;BME280;11852;50.082;18.554;2023-02-03T04:15:06;99072.0;;;0.02;79.51
23361;BME280;11852;50.082;18.554;2023-02-03T04:16:15;99073.5;;;0.05;79.07
23361;BME280;11852;50.082;18.554;2023-02-03T04:17:25;99069.0;;;0.19;78.72
23361;BME280;11852;50.082;18.554;2023-02-03T04:18:33;99068.0;;;0.24;78.61
23361;BME280;11852;50.082;18.554;2023-02-03T04:19:41;99064.5;;;0.0;78.95
23361;BME280;11852;50.082;18.554;2023-02-03T04:20:50;99065.0;;;0.15;78.57
23361;BME280;11852;50.082;18.554;2023-02-03T04:21:59;99060.5;;;0.15;78.71
23361;BME280;11852;50.082;18.554;2023-02-03T04:23:07;99057.5;;;0.17;78.67
23361;BME280;11852;50.082;18.554;2023-02-03T04:24:15;99056.99;;;0.27;78.35
23361;BME280;11852;50.082;18.554;2023-02-03T04:25:23;99059.0;;;0.25;78.26
23361;BME280;11852;50.082;18.554;2023-02-03T04:26:30;99057.0;;;-0.08;78.89
23361;BME280;11852;50.082;18.554;2023-02-03T04:27:38;99059.0;;;0.09;78.36
23361;BME280;11852;50.082;18.554;2023-02-03T04:28:46;99058.0;;;0.03;78.82
23361;BME280;11852;50.082;18.554;2023-02-03T04:29:54;99056.5;;;0.05;78.6
23361;BME280;11852;50.082;18.554;2023-02-03T04:31:01;99055.5;;;-0.06;78.93
23361;BME280;11852;50.082;18.554;2023-02-03T04:32:10;99054.0;;;-0.09;79.02
23361;BME280;11852;50.082;18.554;2023-02-03T04:33:20;99054.0;;;0.0;78.75
23361;BME280;11852;50.082;18.554;2023-02-03T04:34:27;99054.0;;;0.13;78.2
23361;BME280;11852;50.082;18.554;2023-02-03T04:35:36;99052.0;;;0.23;77.88
23361;BME280;11852;50.082;18.554;2023-02-03T04:36:44;99050.0;;;0.27;77.81
23361;BME280;11852;50.082;18.554;2023-02-03T04:37:53;99048.5;;;0.28;77.64
23361;BME280;11852;50.082;18.554;2023-02-03T04:39:03;99043.5;;;0.31;77.59
23361;BME280;11852;50.082;18.554;2023-02-03T04:40:11;99042.01;;;0.33;77.41
23361;BME280;11852;50.082;18.554;2023-02-03T04:41:19;99039.5;;;0.35;77.37
23361;BME280;11852;50.082;18.554;2023-02-03T04:42:29;99039.5;;;0.32;77.42
23361;BME280;11852;50.082;18.554;2023-02-03T04:43:39;99038.5;;;0.41;77.19
23361;BME280;11852;50.082;18.554;2023-02-03T04:44:47;99030.0;;;0.31;77.47
23361;BME280;11852;50.082;18.554;2023-02-03T04:45:57;99028.5;;;0.33;77.35
23361;BME280;11852;50.082;18.554;2023-02-03T04:47:05;99025.0;;;0.4;77.48
23361;BME280;11852;50.082;18.554;2023-02-03T04:48:13;99028.5;;;0.29;77.6
23361;BME280;11852;50.082;18.554;2023-02-03T04:49:25;99031.5;;;0.25;77.74
23361;BME280;11852;50.082;18.554;2023-02-03T04:50:34;99030.0;;;0.28;77.54
23361;BME280;11852;50.082;18.554;2023-02-03T04:51:41;99032.99;;;0.22;77.65
23361;BME280;11852;50.082;18.554;2023-02-03T04:52:51;99035.5;;;0.2;77.79
23361;BME280;11852;50.082;18.554;2023-02-03T04:53:58;99034.5;;;0.26;77.75
23361;BME280;11852;50.082;18.554;2023-02-03T04:55:09;99032.49;;;0.31;77.77
23361;BME280;11852;50.082;18.554;2023-02-03T04:56:20;99033.5;;;0.31;77.65
23361;BME280;11852;50.082;18.554;2023-02-03T04:57:30;99029.0;;;0.27;77.69
23361;BME280;11852;50.082;18.554;2023-02-03T04:58:38;99031.0;;;0.25;77.83
23361;BME280;11852;50.082;18.554;2023-02-03T04:59:46;99031.0;;;0.1;78.1
23361;BME280;11852;50.082;18.554;2023-02-03T05:01:04;99029.5;;;0.13;77.85
23361;BME280;11852;50.082;18.554;2023-02-03T05:02:08;99030.01;;;0.1;78.0
23361;BME280;11852;50.082;18.554;2023-02-03T05:03:18;99020.0;;;-0.04;78.52
23361;BME280;11852;50.082;18.554;2023-02-03T05:04:27;99021.0;;;0.17;77.91
23361;BME280;11852;50.082;18.554;2023-02-03T05:05:36;99016.5;;;0.15;78.02
23361;BME280;11852;50.082;18.554;2023-02-03T05:06:45;99018.5;;;0.02;78.27
23361;BME280;11852;50.082;18.554;2023-02-03T05:07:55;99015.5;;;0.08;78.14
23361;BME280;11852;50.082;18.554;2023-02-03T05:09:03;99013.5;;;-0.0;78.51
23361;BME280;11852;50.082;18.554;2023-02-03T05:10:13;99012.0;;;-0.03;78.46
23361;BME280;11852;50.082;18.554;2023-02-03T05:11:20;99012.5;;;0.05;78.24
23361;BME280;11852;50.082;18.554;2023-02-03T05:12:30;99006.0;;;-0.06;78.17
23361;BME280;11852;50.082;18.554;2023-02-03T05:13:39;99006.0;;;-0.05;78.07
23361;BME280;11852;50.082;18.554;2023-02-03T05:14:49;98999.0;;;-0.07;77.74
23361;BME280;11852;50.082;18.554;2023-02-03T05:15:56;98991.5;;;-0.14;77.92
23361;BME280;11852;50.082;18.554;2023-02-03T05:17:06;98984.0;;;-0.02;77.65
23361;BME280;11852;50.082;18.554;2023-02-03T05:18:16;98978.0;;;-0.13;77.84
23361;BME280;11852;50.082;18.554;2023-02-03T05:19:24;98978.5;;;-0.19;77.82
23361;BME280;11852;50.082;18.554;2023-02-03T05:20:33;98979.51;;;-0.2;77.32
23361;BME280;11852;50.082;18.554;2023-02-03T05:21:42;98976.5;;;-0.11;76.68
23361;BME280;11852;50.082;18.554;2023-02-03T05:22:51;98976.0;;;-0.09;76.64
23361;BME280;11852;50.082;18.554;2023-02-03T05:24:01;98970.0;;;-0.16;76.96
23361;BME280;11852;50.082;18.554;2023-02-03T05:25:11;98971.5;;;-0.2;77.13
23361;BME280;11852;50.082;18.554;2023-02-03T05:26:19;98967.51;;;0.09;76.63
23361;BME280;11852;50.082;18.554;2023-02-03T05:27:30;98966.5;;;0.08;76.46
23361;BME280;11852;50.082;18.554;2023-02-03T05:28:38;98963.0;;;-0.02;76.49
23361;BME280;11852;50.082;18.554;2023-02-03T05:29:48;98960.5;;;-0.09;76.48
23361;BME280;11852;50.082;18.554;2023-02-03T05:30:59;98956.5;;;-0.05;76.26
23361;BME280;11852;50.082;18.554;2023-02-03T05:32:10;98958.0;;;-0.03;76.25
23361;BME280;11852;50.082;18.554;2023-02-03T05:33:18;98956.0;;;-0.03;76.1
23361;BME280;11852;50.082;18.554;2023-02-03T05:34:29;98955.0;;;-0.01;75.99
23361;BME280;11852;50.082;18.554;2023-02-03T05:35:37;98955.5;;;-0.04;75.94
23361;BME280;11852;50.082;18.554;2023-02-03T05:36:45;98953.0;;;-0.1;76.01
23361;BME280;11852;50.082;18.554;2023-02-03T05:37:55;98946.5;;;-0.12;75.69
23361;BME280;11852;50.082;18.554;2023-02-03T05:39:04;98944.5;;;-0.18;75.54
23361;BME280;11852;50.082;18.554;2023-02-03T05:40:18;98944.5;;;-0.23;75.79
23361;BME280;11852;50.082;18.554;2023-02-03T05:41:33;98943.5;;;-0.11;74.85
23361;BME280;11852;50.082;18.554;2023-02-03T05:42:45;98936.0;;;-0.07;74.96
23361;BME280;11852;50.082;18.554;2023-02-03T05:43:53;98938.0;;;-0.02;74.81
23361;BME280;11852;50.082;18.554;2023-02-03T05:45:01;98936.0;;;-0.14;75.35
23361;BME280;11852;50.082;18.554;2023-02-03T05:46:12;98935.0;;;-0.23;75.6
23361;BME280;11852;50.082;18.554;2023-02-03T05:47:21;98935.0;;;-0.14;75.19
23361;BME280;11852;50.082;18.554;2023-02-03T05:48:31;98932.0;;;-0.13;75.04
23361;BME280;11852;50.082;18.554;2023-02-03T05:49:45;98933.5;;;-0.17;74.47
23361;BME280;11852;50.082;18.554;2023-02-03T05:50:56;98931.99;;;-0.15;74.18
23361;BME280;11852;50.082;18.554;2023-02-03T05:52:03;98929.0;;;-0.17;74.35
23361;BME280;11852;50.082;18.554;2023-02-03T05:53:11;98925.5;;;-0.15;74.44
23361;BME280;11852;50.082;18.554;2023-02-03T05:54:21;98926.0;;;-0.13;74.16
23361;BME280;11852;50.082;18.554;2023-02-03T05:55:30;98922.0;;;-0.03;74.04
23361;BME280;11852;50.082;18.554;2023-02-03T05:56:38;98919.0;;;-0.1;74.12
23361;BME280;11852;50.082;18.554;2023-02-03T05:57:47;98919.0;;;-0.2;74.12
23361;BME280;11852;50.082;18.554;2023-02-03T05:58:56;98920.0;;;-0.24;74.28
23361;BME280;11852;50.082;18.554;2023-02-03T06:00:05;98921.0;;;-0.2;74.06
23361;BME280;11852;50.082;18.554;2023-02-03T06:01:15;98921.5;;;-0.14;73.69
23361;BME280;11852;50.082;18.554;2023-02-03T06:02:27;98923.0;;;-0.22;73.78
23361;BME280;11852;50.082;18.554;2023-02-03T06:03:34;98924.5;;;-0.22;73.65
23361;BME280;11852;50.082;18.554;2023-02-03T06:04:45;98925.5;;;-0.19;73.32
23361;BME280;11852;50.082;18.554;2023-02-03T06:05:55;98921.0;;;-0.24;73.32
23361;BME280;11852;50.082;18.554;2023-02-03T06:07:06;98913.0;;;-0.23;73.67
23361;BME280;11852;50.082;18.554;2023-02-03T06:08:13;98915.5;;;-0.19;73.56
23361;BME280;11852;50.082;18.554;2023-02-03T06:09:23;98911.0;;;-0.33;73.77
23361;BME280;11852;50.082;18.554;2023-02-03T06:10:31;98911.5;;;-0.23;73.41
23361;BME280;11852;50.082;18.554;2023-02-03T06:11:41;98908.5;;;-0.25;73.39
23361;BME280;11852;50.082;18.554;2023-02-03T06:12:51;98906.0;;;-0.22;73.43
23361;BME280;11852;50.082;18.554;2023-02-03T06:14:01;98904.5;;;-0.21;73.21
23361;BME280;11852;50.082;18.554;2023-02-03T06:15:09;98904.51;;;-0.23;73.36
23361;BME280;11852;50.082;18.554;2023-02-03T06:16:17;98906.99;;;-0.2;73.33
23361;BME280;11852;50.082;18.554;2023-02-03T06:17:26;98905.01;;;-0.2;73.57
23361;BME280;11852;50.082;18.554;2023-02-03T06:18:34;98906.99;;;-0.2;73.74
23361;BME280;11852;50.082;18.554;2023-02-03T06:19:42;98903.0;;;-0.12;73.11
23361;BME280;11852;50.082;18.554;2023-02-03T06:20:51;98905.0;;;-0.16;73.05
23361;BME280;11852;50.082;18.554;2023-02-03T06:22:02;98903.5;;;-0.13;73.1
23361;BME280;11852;50.082;18.554;2023-02-03T06:23:11;98902.5;;;-0.08;73.05
23361;BME280;11852;50.082;18.554;2023-02-03T06:24:20;98898.0;;;-0.31;73.49
23361;BME280;11852;50.082;18.554;2023-02-03T06:25:31;98892.01;;;-0.31;73.65
23361;BME280;11852;50.082;18.554;2023-02-03T06:26:39;98898.5;;;-0.19;72.99
23361;BME280;11852;50.082;18.554;2023-02-03T06:27:48;98894.5;;;-0.07;72.57
23361;BME280;11852;50.082;18.554;2023-02-03T06:28:58;98892.5;;;-0.23;73.12
23361;BME280;11852;50.082;18.554;2023-02-03T06:30:11;98892.01;;;-0.16;72.71
23361;BME280;11852;50.082;18.554;2023-02-03T06:31:19;98889.0;;;0.03;72.09
23361;BME280;11852;50.082;18.554;2023-02-03T06:32:32;98889.0;;;-0.11;72.29
23361;BME280;11852;50.082;18.554;2023-02-03T06:33:41;98881.99;;;-0.06;72.05
23361;BME280;11852;50.082;18.554;2023-02-03T06:34:50;98881.5;;;-0.14;71.99
23361;BME280;11852;50.082;18.554;2023-02-03T06:36:00;98879.51;;;-0.05;71.75
23361;BME280;11852;50.082;18.554;2023-02-03T06:37:09;98879.0;;;-0.05;71.79
23361;BME280;11852;50.082;18.554;2023-02-03T06:38:19;98871.0;;;-0.31;72.53